Time;durP1;ratioP1;P1;durP2;ratioP2;P2;SDS_P1;SDS_P2;PMS_P1;PMS_P2;Temp;Humidity;BMP_temperature;BMP_pressure;BME280_temperature;BME280_humidity;BME280_pressure;Samples;Min_cycle;Max_cycle;Signal;HPM_P1;HPM_P2
2021/11/23 00:01:25;;;;;;;43.40;21.73;;;5.90;99.90;;;;;;4948615;28;20051;-88
2021/11/23 00:03:53;;;;;;;40.03;21.88;;;5.90;99.90;;;;;;4970556;28;20077;-87
2021/11/23 00:06:21;;;;;;;44.88;22.15;;;5.30;99.90;;;;;;5003349;28;20753;-88
2021/11/23 00:08:49;;;;;;;41.97;21.23;;;6.30;99.90;;;;;;4957893;28;20129;-88
2021/11/23 00:11:16;;;;;;;41.60;19.63;;;5.30;99.90;;;;;;4970577;28;20046;-87
2021/11/23 00:13:44;;;;;;;43.65;20.67;;;5.30;99.90;;;;;;4969165;28;20061;-87
2021/11/23 00:16:17;;;;;;;43.65;20.95;;;5.40;99.90;;;;;;4968852;28;20049;-87
2021/11/23 00:18:46;;;;;;;53.67;22.73;;;5.40;99.90;;;;;;4991677;28;20058;-87
2021/11/23 00:21:15;;;;;;;50.50;22.33;;;5.40;99.90;;;;;;5007807;28;20054;-88
2021/11/23 00:23:43;;;;;;;51.83;25.15;;;5.40;99.90;;;;;;4975560;28;20445;-87
2021/11/23 00:26:11;;;;;;;47.05;22.88;;;5.30;99.90;;;;;;4992532;28;20058;-87
2021/11/23 00:28:38;;;;;;;49.08;22.35;;;5.50;99.90;;;;;;5012051;28;20046;-86
2021/11/23 00:31:06;;;;;;;41.15;23.15;;;6.10;99.90;;;;;;4996220;28;20058;-87
2021/11/23 00:33:40;;;;;;;45.45;20.05;;;6.10;99.90;;;;;;4996219;28;20053;-87
2021/11/23 00:36:10;;;;;;;48.53;25.30;;;5.60;99.90;;;;;;4991502;28;20056;-88
2021/11/23 00:38:46;;;;;;;62.33;25.38;;;5.90;99.90;;;;;;5008325;28;20054;-88
2021/11/23 00:41:17;;;;;;;43.53;22.75;;;5.60;99.90;;;;;;4997245;28;20042;-87
2021/11/23 00:43:46;;;;;;;47.92;23.75;;;5.50;99.90;;;;;;5006323;28;20521;-87
2021/11/23 00:46:15;;;;;;;40.75;21.67;;;5.50;99.90;;;;;;4992490;28;20034;-88
2021/11/23 00:48:43;;;;;;;52.58;24.92;;;7.10;99.90;;;;;;4991885;28;20050;-88
2021/11/23 00:51:11;;;;;;;51.05;24.27;;;5.50;99.90;;;;;;4976522;28;20077;-87
2021/11/23 00:53:39;;;;;;;79.13;24.52;;;6.40;99.90;;;;;;4991983;28;20057;-87
2021/11/23 00:56:07;;;;;;;52.13;24.40;;;6.10;99.90;;;;;;5007510;28;20061;-88
2021/11/23 00:58:36;;;;;;;54.72;23.58;;;5.50;99.90;;;;;;4943547;28;20130;-88
2021/11/23 01:01:04;;;;;;;39.92;21.42;;;5.50;99.90;;;;;;4975140;28;20069;-88
2021/11/23 01:03:32;;;;;;;40.22;23.30;;;5.60;99.90;;;;;;4975811;28;20478;-88
2021/11/23 01:06:01;;;;;;;50.33;21.70;;;5.90;99.90;;;;;;4966938;28;20065;-88
2021/11/23 01:08:29;;;;;;;51.83;24.83;;;5.80;99.90;;;;;;5016587;28;20382;-87
2021/11/23 01:10:57;;;;;;;46.63;21.55;;;6.80;99.90;;;;;;4970040;28;20050;-88
2021/11/23 01:13:25;;;;;;;50.63;26.65;;;5.30;99.90;;;;;;4995037;28;20050;-87
2021/11/23 01:15:52;;;;;;;46.33;24.73;;;5.30;99.90;;;;;;4958920;28;20042;-87
2021/11/23 01:18:20;;;;;;;39.53;22.13;;;5.20;99.90;;;;;;4991052;28;20054;-89
2021/11/23 01:20:49;;;;;;;46.58;21.95;;;6.10;99.90;;;;;;4959103;28;20054;-87
2021/11/23 01:23:17;;;;;;;59.40;24.02;;;5.10;99.90;;;;;;5007271;28;20061;-87
2021/11/23 01:25:44;;;;;;;46.13;22.98;;;5.00;99.90;;;;;;4973129;28;20050;-87
2021/11/23 01:28:12;;;;;;;50.85;23.70;;;5.00;99.90;;;;;;4998026;28;20391;-88
2021/11/23 01:30:40;;;;;;;46.50;23.77;;;5.00;99.90;;;;;;4953586;28;20649;-87
2021/11/23 01:33:08;;;;;;;52.22;24.90;;;5.00;99.90;;;;;;4969916;28;20054;-87
2021/11/23 01:35:35;;;;;;;108.13;31.08;;;6.40;99.90;;;;;;4977082;28;20046;-88
2021/11/23 01:38:03;;;;;;;129.30;29.55;;;5.50;99.90;;;;;;4974293;28;20042;-88
2021/11/23 01:40:31;;;;;;;195.93;39.35;;;5.90;99.90;;;;;;5003064;28;20486;-87
2021/11/23 01:43:05;;;;;;;176.48;37.28;;;4.90;99.90;;;;;;4986353;28;20475;-87
2021/11/23 01:45:38;;;;;;;96.57;28.40;;;5.00;99.90;;;;;;4959636;28;20058;-88
2021/11/23 01:48:07;;;;;;;170.32;38.30;;;5.50;99.90;;;;;;5001550;28;20047;-87
2021/11/23 01:50:36;;;;;;;86.97;30.40;;;4.90;99.90;;;;;;4988319;28;20087;-87
2021/11/23 01:53:06;;;;;;;124.32;30.65;;;5.10;99.90;;;;;;4961898;28;20074;-87
2021/11/23 01:55:37;;;;;;;189.40;36.22;;;5.10;99.90;;;;;;4954256;28;20050;-87
2021/11/23 01:58:06;;;;;;;163.40;40.40;;;5.90;99.90;;;;;;4998035;28;20521;-87
2021/11/23 02:00:35;;;;;;;121.40;39.42;;;5.10;99.90;;;;;;4956646;28;20069;-87
2021/11/23 02:03:03;;;;;;;111.40;35.22;;;5.10;99.90;;;;;;5003153;28;20058;-86
2021/11/23 02:05:34;;;;;;;150.38;38.67;;;6.50;99.90;;;;;;4962893;28;20055;-87
2021/11/23 02:08:03;;;;;;;116.53;37.08;;;5.20;99.90;;;;;;4955606;28;20062;-86
2021/11/23 02:10:33;;;;;;;119.53;37.05;;;5.20;99.90;;;;;;4969932;28;20050;-87
2021/11/23 02:13:02;;;;;;;237.60;49.03;;;5.20;99.90;;;;;;4987997;28;20065;-87
2021/11/23 02:15:30;;;;;;;120.35;38.22;;;5.20;99.90;;;;;;4971891;28;20074;-88
2021/11/23 02:17:58;;;;;;;159.48;37.88;;;5.70;99.90;;;;;;5003731;28;20050;-87
2021/11/23 02:20:26;;;;;;;151.52;41.53;;;5.30;99.90;;;;;;4971968;28;20061;-87
2021/11/23 02:22:53;;;;;;;112.93;33.90;;;5.30;99.90;;;;;;4972502;28;20050;-88
2021/11/23 02:25:21;;;;;;;97.45;33.28;;;5.50;99.90;;;;;;4965629;28;20506;-87
2021/11/23 02:27:49;;;;;;;103.22;35.88;;;5.50;99.90;;;;;;4986478;28;20054;-88
2021/11/23 02:30:17;;;;;;;250.60;51.10;;;6.70;99.90;;;;;;5000716;28;20338;-87
2021/11/23 02:32:52;;;;;;;170.40;48.33;;;5.30;99.90;;;;;;5004256;28;20057;-87
2021/11/23 02:35:23;;;;;;;121.65;39.20;;;5.30;99.90;;;;;;4981465;28;20046;-88
2021/11/23 02:37:54;;;;;;;64.28;30.77;;;6.40;99.90;;;;;;4996867;28;20046;-88
2021/11/23 02:40:23;;;;;;;62.67;31.10;;;6.60;99.90;;;;;;5005767;28;20872;-87
2021/11/23 02:42:51;;;;;;;73.38;33.22;;;5.20;99.90;;;;;;5010278;28;20306;-87
2021/11/23 02:45:21;;;;;;;59.78;29.85;;;5.20;99.90;;;;;;4989584;28;20050;-88
2021/11/23 02:47:51;;;;;;;55.08;27.52;;;5.10;99.90;;;;;;4960289;28;20058;-87
2021/11/23 02:50:20;;;;;;;69.20;32.75;;;6.10;99.90;;;;;;4967684;28;20050;-88
2021/11/23 02:52:50;;;;;;;54.20;28.40;;;4.90;99.90;;;;;;4989411;28;20490;-87
2021/11/23 02:55:19;;;;;;;54.88;29.42;;;4.80;99.90;;;;;;4970759;28;20058;-88
2021/11/23 02:57:48;;;;;;;59.25;28.95;;;4.80;99.90;;;;;;4988041;28;20050;-87
2021/11/23 03:00:23;;;;;;;76.40;27.77;;;4.90;99.90;;;;;;4971814;28;20505;-86
2021/11/23 03:02:51;;;;;;;63.17;26.65;;;4.70;99.90;;;;;;4947220;28;20059;-87
2021/11/23 03:05:21;;;;;;;60.72;27.00;;;5.20;99.90;;;;;;4964796;28;20513;-88
2021/11/23 03:07:50;;;;;;;55.72;27.77;;;5.40;99.90;;;;;;4965608;28;20059;-86
2021/11/23 03:10:20;;;;;;;74.80;31.38;;;6.10;99.90;;;;;;4949967;28;20071;-87
2021/11/23 03:12:52;;;;;;;67.43;28.98;;;5.20;99.90;;;;;;4962653;28;20054;-85
2021/11/23 03:15:20;;;;;;;54.72;28.52;;;4.50;99.90;;;;;;4955424;28;20055;-87
2021/11/23 03:17:48;;;;;;;52.13;23.15;;;4.00;99.90;;;;;;4967364;28;20051;-87
2021/11/23 03:20:18;;;;;;;55.28;25.48;;;6.50;99.90;;;;;;4963855;28;20039;-87
2021/11/23 03:22:46;;;;;;;66.70;28.15;;;4.40;99.90;;;;;;4951881;29;20043;-86
2021/11/23 03:25:14;;;;;;;53.72;29.05;;;4.40;99.90;;;;;;4953336;29;20069;-89
2021/11/23 03:27:45;;;;;;;62.50;28.50;;;4.30;99.90;;;;;;4968501;29;20031;-86
2021/11/23 03:30:16;;;;;;;55.15;28.50;;;4.70;99.90;;;;;;4954252;28;20499;-88
2021/11/23 03:32:44;;;;;;;;;;;4.20;99.90;;;;;;4943361;29;20047;-87
2021/11/23 03:35:13;;;;;;;57.17;26.83;;;4.20;99.90;;;;;;4970083;29;19932;-87
2021/11/23 03:37:42;;;;;;;55.72;25.15;;;4.10;99.90;;;;;;4951091;29;20223;-86
2021/11/23 03:40:11;;;;;;;57.33;26.35;;;4.10;99.90;;;;;;4951201;29;20056;-87
2021/11/23 03:42:39;;;;;;;52.22;25.15;;;4.10;99.90;;;;;;4984222;28;20047;-87
2021/11/23 03:45:07;;;;;;;54.30;26.08;;;4.10;99.90;;;;;;4955356;28;20070;-88
2021/11/23 03:47:36;;;;;;;49.90;25.60;;;4.00;99.90;;;;;;4955823;28;20063;-87
2021/11/23 03:50:08;;;;;;;50.38;24.80;;;4.00;99.90;;;;;;4949858;29;20051;-88
2021/11/23 03:52:36;;;;;;;47.58;25.48;;;3.90;99.90;;;;;;4954786;28;20040;-87
2021/11/23 03:55:06;;;;;;;51.47;24.05;;;4.30;99.90;;;;;;4948957;28;20058;-87
2021/11/23 03:57:34;;;;;;;51.33;24.98;;;3.80;99.90;;;;;;4949039;28;20059;-87
2021/11/23 04:00:08;;;;;;;40.40;21.05;;;3.80;99.90;;;;;;4981473;28;20476;-87
2021/11/23 04:02:45;;;;;;;40.58;21.67;;;3.80;99.90;;;;;;4991149;28;20058;-88
2021/11/23 04:05:12;;;;;;;39.92;23.25;;;4.80;99.90;;;;;;4985084;28;20038;-86
2021/11/23 04:07:41;;;;;;;37.78;21.25;;;3.70;99.90;;;;;;5002751;28;20051;-87
2021/11/23 04:10:11;;;;;;;48.13;23.58;;;3.70;99.90;;;;;;5002901;28;20051;-87
2021/11/23 04:12:39;;;;;;;48.25;26.40;;;3.70;99.90;;;;;;4949424;28;20052;-87
2021/11/23 04:15:08;;;;;;;45.50;22.60;;;3.60;99.90;;;;;;4985056;28;20054;-87
2021/11/23 04:17:36;;;;;;;58.67;25.83;;;3.60;99.90;;;;;;4986577;28;20050;-88
2021/11/23 04:20:06;;;;;;;72.47;26.77;;;3.60;99.90;;;;;;4968799;28;20054;-87
2021/11/23 04:22:34;;;;;;;79.57;24.83;;;3.60;99.90;;;;;;4967963;28;20050;-88
2021/11/23 04:25:02;;;;;;;78.57;24.90;;;3.60;99.90;;;;;;4968046;28;20574;-85
2021/11/23 04:27:30;;;;;;;71.35;28.38;;;5.60;99.90;;;;;;4985182;28;20054;-86
2021/11/23 04:29:57;;;;;;;73.32;27.70;;;3.60;99.90;;;;;;5000874;28;20521;-87
2021/11/23 04:32:25;;;;;;;81.18;29.35;;;4.20;99.90;;;;;;4984702;28;20062;-88
2021/11/23 04:34:53;;;;;;;66.63;26.05;;;3.50;99.90;;;;;;4967603;28;20057;-86
2021/11/23 04:37:20;;;;;;;72.68;26.00;;;3.60;99.90;;;;;;4972240;28;20051;-86
2021/11/23 04:39:49;;;;;;;151.55;39.67;;;3.50;99.90;;;;;;4984200;28;20545;-86
2021/11/23 04:42:17;;;;;;;86.97;28.25;;;3.60;99.90;;;;;;4954162;28;20081;-86
2021/11/23 04:44:44;;;;;;;81.28;27.25;;;3.60;99.90;;;;;;4974831;28;20042;-87
2021/11/23 04:47:12;;;;;;;71.32;25.30;;;3.60;99.90;;;;;;4954725;28;20059;-87
2021/11/23 04:49:40;;;;;;;155.00;34.08;;;3.60;99.90;;;;;;5000427;28;20055;-87
2021/11/23 04:52:08;;;;;;;131.88;28.55;;;3.50;99.90;;;;;;4968082;28;20406;-85
2021/11/23 04:54:36;;;;;;;63.00;27.15;;;3.50;99.90;;;;;;4968192;28;20054;-86
2021/11/23 04:57:05;;;;;;;75.68;27.15;;;4.10;99.90;;;;;;4966404;28;20565;-87
2021/11/23 04:59:32;;;;;;;42.17;22.73;;;3.50;99.90;;;;;;4967895;28;20086;-86
2021/11/23 05:02:00;;;;;;;47.90;23.70;;;3.50;99.90;;;;;;4967942;28;20655;-87
2021/11/23 05:04:28;;;;;;;38.40;23.00;;;3.50;99.90;;;;;;4970793;28;20051;-86
2021/11/23 05:06:55;;;;;;;44.30;25.42;;;3.40;99.90;;;;;;4972482;28;20055;-86
2021/11/23 05:09:23;;;;;;;35.95;20.40;;;3.40;99.90;;;;;;4987918;28;20051;-88
2021/11/23 05:11:51;;;;;;;38.63;20.85;;;4.80;99.90;;;;;;4987169;28;20551;-85
2021/11/23 05:14:19;;;;;;;38.35;21.55;;;3.30;99.90;;;;;;5003839;28;20051;-88
2021/11/23 05:16:46;;;;;;;37.22;21.33;;;4.20;99.90;;;;;;4972820;28;20051;-86
2021/11/23 05:19:14;;;;;;;36.60;20.02;;;4.00;99.90;;;;;;4987726;28;20058;-88
2021/11/23 05:21:42;;;;;;;38.13;19.98;;;3.30;99.90;;;;;;4989004;28;20063;-86
2021/11/23 05:24:10;;;;;;;32.63;19.08;;;3.30;99.90;;;;;;4943630;28;20054;-87
2021/11/23 05:26:37;;;;;;;37.25;18.98;;;3.30;99.90;;;;;;4965504;28;20403;-88
2021/11/23 05:29:05;;;;;;;30.65;16.27;;;3.20;99.90;;;;;;4975563;28;20049;-87
2021/11/23 05:31:33;;;;;;;36.90;19.27;;;3.20;99.90;;;;;;4995739;28;20050;-88
2021/11/23 05:34:01;;;;;;;36.80;20.23;;;3.20;99.90;;;;;;4991775;28;20038;-87
2021/11/23 05:36:29;;;;;;;34.65;17.88;;;3.20;99.90;;;;;;4992729;28;20545;-88
2021/11/23 05:38:56;;;;;;;34.40;19.13;;;3.10;99.90;;;;;;4978568;28;20402;-86
2021/11/23 05:41:24;;;;;;;37.90;17.55;;;4.20;99.90;;;;;;4988959;28;20055;-87
2021/11/23 05:43:52;;;;;;;40.83;17.80;;;3.10;99.90;;;;;;5004512;28;20055;-86
2021/11/23 05:46:21;;;;;;;38.55;18.42;;;3.10;99.90;;;;;;4956387;28;20062;-86
2021/11/23 05:48:48;;;;;;;35.13;17.80;;;3.10;99.90;;;;;;4970830;28;20051;-87
2021/11/23 05:51:16;;;;;;;30.55;17.48;;;3.10;99.90;;;;;;4986169;28;20050;-87
2021/11/23 05:53:44;;;;;;;32.83;18.48;;;3.10;99.90;;;;;;4967617;28;20043;-86
2021/11/23 05:56:11;;;;;;;34.53;19.70;;;3.00;99.90;;;;;;4999636;28;20065;-86
2021/11/23 05:58:39;;;;;;;31.17;18.90;;;3.40;99.90;;;;;;5001747;28;20055;-86
2021/11/23 06:01:07;;;;;;;35.40;20.17;;;3.10;99.90;;;;;;4965924;28;20438;-87
2021/11/23 06:03:35;;;;;;;31.90;16.92;;;3.20;99.90;;;;;;4999879;28;20059;-85
2021/11/23 06:06:03;;;;;;;28.65;17.85;;;3.10;99.90;;;;;;5000120;28;20518;-87
2021/11/23 06:08:31;;;;;;;31.50;15.82;;;3.10;99.90;;;;;;4986982;28;20521;-84
2021/11/23 06:10:59;;;;;;;31.10;15.45;;;3.10;99.90;;;;;;4969831;28;20057;-86
2021/11/23 06:13:27;;;;;;;35.10;18.55;;;3.10;99.90;;;;;;4965197;28;20102;-86
2021/11/23 06:15:55;;;;;;;28.58;15.48;;;3.10;99.90;;;;;;4997113;28;20043;-86
2021/11/23 06:18:22;;;;;;;32.95;15.55;;;3.10;99.90;;;;;;4997509;28;20516;-88
2021/11/23 06:20:53;;;;;;;26.45;14.13;;;4.60;99.90;;;;;;4995761;28;20063;-88
2021/11/23 06:23:23;;;;;;;40.42;17.65;;;3.10;99.90;;;;;;4974116;28;20047;-87
2021/11/23 06:25:54;;;;;;;32.88;16.90;;;3.10;99.90;;;;;;4969290;28;20070;-87
2021/11/23 06:28:22;;;;;;;26.80;15.13;;;3.20;99.90;;;;;;4970014;28;20065;-88
2021/11/23 06:30:50;;;;;;;30.70;15.40;;;4.00;99.90;;;;;;4984496;28;20066;-87
2021/11/23 06:33:18;;;;;;;29.95;16.67;;;3.20;99.90;;;;;;4983595;28;20054;-86
2021/11/23 06:35:47;;;;;;;30.05;15.70;;;3.20;99.90;;;;;;4970090;28;20039;-87
2021/11/23 06:38:15;;;;;;;36.22;18.52;;;3.30;99.90;;;;;;4978277;28;20529;-86
2021/11/23 06:40:47;;;;;;;37.35;17.73;;;4.40;99.90;;;;;;4970527;28;20050;-86
2021/11/23 06:43:15;;;;;;;43.53;21.58;;;3.40;99.90;;;;;;4984553;28;20262;-87
2021/11/23 06:45:42;;;;;;;50.08;23.85;;;4.80;99.90;;;;;;4960398;28;20051;-86
2021/11/23 06:48:11;;;;;;;41.25;21.35;;;3.30;99.90;;;;;;4968822;28;20610;-88
2021/11/23 06:50:41;;;;;;;44.42;22.83;;;3.20;99.90;;;;;;4967610;28;20059;-86
2021/11/23 06:53:10;;;;;;;44.72;22.00;;;5.00;99.90;;;;;;4983532;28;20066;-87
2021/11/23 06:55:40;;;;;;;42.60;18.67;;;5.00;99.90;;;;;;4950308;28;20062;-87
2021/11/23 06:58:09;;;;;;;40.88;22.88;;;3.20;99.90;;;;;;4998216;28;20062;-87
2021/11/23 07:00:38;;;;;;;37.75;18.80;;;4.90;99.90;;;;;;4964349;28;20053;-88
2021/11/23 07:03:06;;;;;;;38.78;19.65;;;3.30;99.90;;;;;;4971638;28;20057;-85
2021/11/23 07:05:35;;;;;;;38.08;18.55;;;3.30;99.90;;;;;;5003380;28;20513;-87
2021/11/23 07:08:22;;;;;;;36.88;19.10;;;3.30;99.90;;;;;;4971015;28;20057;-86
2021/11/23 07:10:53;;;;;;;41.55;19.30;;;3.40;99.90;;;;;;5005829;28;20052;-86
2021/11/23 07:13:20;;;;;;;34.63;16.42;;;3.40;99.90;;;;;;4960548;28;20050;-85
2021/11/23 07:15:48;;;;;;;36.75;18.23;;;3.50;99.90;;;;;;4974171;28;20038;-88
2021/11/23 07:18:16;;;;;;;34.92;17.77;;;3.50;99.90;;;;;;4968040;28;20577;-87
2021/11/23 07:20:45;;;;;;;35.45;19.30;;;3.50;99.90;;;;;;5003498;28;20050;-86
2021/11/23 07:23:14;;;;;;;32.72;17.33;;;4.70;99.90;;;;;;4999829;28;20412;-87
2021/11/23 07:25:42;;;;;;;35.13;18.52;;;3.90;99.90;;;;;;4967498;28;20050;-87
2021/11/23 07:28:10;;;;;;;31.30;15.25;;;4.60;99.90;;;;;;4979716;28;20062;-87
2021/11/23 07:30:38;;;;;;;32.28;18.20;;;3.50;99.90;;;;;;4987929;28;20055;-86
2021/11/23 07:33:06;;;;;;;40.47;21.05;;;3.80;99.90;;;;;;4960975;28;20057;-85
2021/11/23 07:35:33;;;;;;;34.78;19.17;;;3.60;99.90;;;;;;5011369;28;20054;-86
2021/11/23 07:38:01;;;;;;;33.45;18.67;;;3.60;99.90;;;;;;4980245;28;20051;-85
2021/11/23 07:40:35;;;;;;;34.83;19.52;;;5.70;99.90;;;;;;4982909;28;20045;-84
2021/11/23 07:43:04;;;;;;;36.05;16.25;;;4.50;99.90;;;;;;4996264;28;20058;-84
2021/11/23 07:45:40;;;;;;;35.03;18.35;;;3.60;99.90;;;;;;4976057;28;20375;-85
2021/11/23 07:48:10;;;;;;;29.40;16.20;;;3.60;99.90;;;;;;5007208;28;20055;-85
2021/11/23 07:50:41;;;;;;;34.10;18.92;;;3.60;99.90;;;;;;4952443;28;20055;-84
2021/11/23 07:53:10;;;;;;;28.45;16.52;;;4.70;99.90;;;;;;4983242;28;20051;-83
2021/11/23 07:55:41;;;;;;;34.35;16.98;;;3.70;99.90;;;;;;4986664;28;20074;-84
2021/11/23 07:58:14;;;;;;;34.13;17.38;;;3.70;99.90;;;;;;4981649;28;20579;-83
2021/11/23 08:00:43;;;;;;;32.10;15.98;;;3.70;99.90;;;;;;4979166;28;20074;-85
2021/11/23 08:03:11;;;;;;;32.38;17.02;;;3.80;99.90;;;;;;4982925;28;20051;-84
2021/11/23 08:05:40;;;;;;;29.27;17.20;;;3.80;99.90;;;;;;4966658;28;20081;-85
2021/11/23 08:08:09;;;;;;;31.27;18.30;;;5.60;99.90;;;;;;4966041;28;20365;-85
2021/11/23 08:10:37;;;;;;;27.23;14.32;;;5.40;99.90;;;;;;4971201;28;20046;-83
2021/11/23 08:13:05;;;;;;;33.15;15.75;;;3.80;99.90;;;;;;4998380;28;20050;-83
2021/11/23 08:15:35;;;;;;;31.50;15.27;;;4.10;99.90;;;;;;4970197;28;20066;-86
2021/11/23 08:18:05;;;;;;;33.97;18.75;;;5.00;99.90;;;;;;4974254;28;20075;-84
2021/11/23 08:20:34;;;;;;;30.40;17.40;;;3.90;99.90;;;;;;5005391;28;20053;-85
2021/11/23 08:23:15;;;;;;;34.70;18.25;;;4.00;99.90;;;;;;5007714;28;20050;-83
2021/11/23 08:25:46;;;;;;;29.20;18.00;;;4.10;99.90;;;;;;4969819;28;20069;-83
2021/11/23 08:28:16;;;;;;;33.22;16.98;;;5.20;99.90;;;;;;4969543;28;20387;-84
2021/11/23 08:30:45;;;;;;;28.92;16.05;;;4.20;99.90;;;;;;4957288;28;20043;-83
2021/11/23 08:33:13;;;;;;;28.17;15.05;;;4.30;99.90;;;;;;4970853;28;20058;-84
2021/11/23 08:35:41;;;;;;;26.08;15.90;;;4.30;99.90;;;;;;4972249;28;20498;-83
2021/11/23 08:38:12;;;;;;;33.95;15.02;;;4.30;99.90;;;;;;4975051;28;20059;-84
2021/11/23 08:40:42;;;;;;;26.55;15.88;;;4.30;99.90;;;;;;5027051;28;20046;-85
2021/11/23 08:43:26;;;;;;;31.15;18.10;;;4.30;99.90;;;;;;4975530;28;20058;-83
2021/11/23 08:45:54;;;;;;;36.92;17.30;;;5.10;99.90;;;;;;4964613;28;20426;-85
2021/11/23 08:48:22;;;;;;;28.52;15.00;;;4.40;99.90;;;;;;4968009;28;20058;-87
2021/11/23 08:50:50;;;;;;;30.25;16.88;;;4.40;99.90;;;;;;4988662;28;20050;-87
2021/11/23 08:53:17;;;;;;;34.03;17.02;;;5.70;99.90;;;;;;4980618;28;20039;-85
2021/11/23 08:55:45;;;;;;;31.58;16.08;;;4.90;99.90;;;;;;4976032;28;20502;-87
2021/11/23 08:58:13;;;;;;;30.75;15.88;;;4.50;99.90;;;;;;4986594;28;20517;-85
2021/11/23 09:00:43;;;;;;;28.20;15.63;;;4.60;99.90;;;;;;5001977;28;20049;-85
2021/11/23 09:03:11;;;;;;;34.15;14.95;;;4.50;99.90;;;;;;4971062;28;20058;-85
2021/11/23 09:05:39;;;;;;;42.92;18.80;;;4.50;99.90;;;;;;4972596;28;20051;-86
2021/11/23 09:08:07;;;;;;;35.20;17.63;;;4.60;99.90;;;;;;4973651;28;20470;-84
2021/11/23 09:10:39;;;;;;;39.25;18.70;;;4.60;99.90;;;;;;4973772;28;20572;-85
2021/11/23 09:13:09;;;;;;;31.13;18.08;;;4.70;99.90;;;;;;4988086;28;20050;-84
2021/11/23 09:15:38;;;;;;;33.40;16.98;;;4.70;99.90;;;;;;4972737;28;20071;-84
2021/11/23 09:18:07;;;;;;;34.45;18.80;;;4.80;99.90;;;;;;5009974;28;20050;-84
2021/11/23 09:20:36;;;;;;;35.30;17.10;;;4.90;99.90;;;;;;4996072;28;20073;-84
2021/11/23 09:23:10;;;;;;;38.15;18.73;;;5.50;99.90;;;;;;4973708;28;20050;-85
2021/11/23 09:25:39;;;;;;;34.15;15.43;;;5.00;99.90;;;;;;4990504;28;20057;-86
2021/11/23 09:28:08;;;;;;;35.95;17.70;;;5.10;99.90;;;;;;4977616;28;20054;-84
2021/11/23 09:30:37;;;;;;;35.95;19.17;;;5.20;99.90;;;;;;4980022;28;20047;-85
2021/11/23 09:33:07;;;;;;;31.05;16.35;;;5.20;99.90;;;;;;4982555;28;20074;-85
2021/11/23 09:35:35;;;;;;;35.03;18.30;;;5.20;99.90;;;;;;4967689;28;20482;-85
2021/11/23 09:38:03;;;;;;;35.25;17.98;;;6.40;99.90;;;;;;4975373;28;20054;-84
2021/11/23 09:40:31;;;;;;;34.50;19.63;;;7.00;99.90;;;;;;4977959;28;20046;-84
2021/11/23 09:43:00;;;;;;;33.20;16.92;;;5.40;99.90;;;;;;4980334;28;20501;-86
2021/11/23 09:45:31;;;;;;;30.42;15.95;;;5.40;99.90;;;;;;4955852;28;20062;-85
2021/11/23 09:48:05;;;;;;;35.42;18.40;;;5.40;99.90;;;;;;4981115;28;20053;-85
2021/11/23 09:50:38;;;;;;;32.05;16.67;;;5.50;99.90;;;;;;4980029;28;20423;-85
2021/11/23 09:53:07;;;;;;;33.90;16.83;;;5.50;99.90;;;;;;4967100;28;20054;-85
2021/11/23 09:55:36;;;;;;;34.72;19.00;;;5.50;99.90;;;;;;4981708;28;20050;-84
2021/11/23 09:58:04;;;;;;;42.00;19.33;;;5.80;99.90;;;;;;4979562;28;20057;-84
2021/11/23 10:00:42;;;;;;;34.42;16.70;;;5.50;99.90;;;;;;4973495;28;20054;-85
2021/11/23 10:03:16;;;;;;;31.23;18.42;;;5.60;99.90;;;;;;4989289;28;20250;-85
2021/11/23 10:05:45;;;;;;;30.05;16.15;;;5.60;99.90;;;;;;4973681;28;20053;-84
2021/11/23 10:08:16;;;;;;;37.00;17.38;;;5.70;99.90;;;;;;4978105;28;20046;-85
2021/11/23 10:10:51;;;;;;;33.50;17.15;;;5.80;99.90;;;;;;4982755;28;20070;-89
2021/11/23 10:13:22;;;;;;;30.23;17.20;;;7.10;99.90;;;;;;4990266;28;20528;-87
2021/11/23 10:15:52;;;;;;;52.17;20.27;;;6.00;99.90;;;;;;4962809;28;20062;-89
2021/11/23 10:18:32;;;;;;;40.15;17.88;;;6.10;99.90;;;;;;4984696;28;20070;-83
2021/11/23 10:21:02;;;;;;;37.40;18.05;;;6.20;99.90;;;;;;4979550;28;20062;-87
2021/11/23 10:23:37;;;;;;;33.45;18.90;;;6.30;99.90;;;;;;4976349;28;20045;-84
2021/11/23 10:26:12;;;;;;;33.15;17.00;;;6.40;99.90;;;;;;4976929;28;20737;-84
2021/11/23 10:28:54;;;;;;;35.65;18.30;;;6.50;99.90;;;;;;4993598;28;20047;-84
2021/11/23 10:31:33;;;;;;;32.83;15.50;;;6.50;99.90;;;;;;4978394;28;20564;-84
2021/11/23 10:34:08;;;;;;;34.25;15.73;;;6.60;99.90;;;;;;4947542;28;20066;-84
2021/11/23 10:36:40;;;;;;;28.73;15.77;;;6.50;99.90;;;;;;4980593;28;20054;-84
2021/11/23 10:39:17;;;;;;;39.17;20.80;;;6.70;99.90;;;;;;4973276;28;20069;-86
2021/11/23 10:41:55;;;;;;;28.17;17.83;;;6.70;99.90;;;;;;4974703;28;20061;-82
2021/11/23 10:44:28;;;;;;;38.58;18.65;;;6.60;99.90;;;;;;4978529;28;20043;-82
2021/11/23 10:47:04;;;;;;;34.08;18.42;;;6.50;99.90;;;;;;4981416;28;20049;-84
2021/11/23 10:49:33;;;;;;;41.75;19.45;;;6.50;99.90;;;;;;4973900;28;20058;-86
2021/11/23 10:52:02;;;;;;;35.88;18.95;;;6.50;99.90;;;;;;4984658;28;20059;-87
2021/11/23 10:54:33;;;;;;;52.85;21.25;;;6.50;99.90;;;;;;5004955;28;20035;-85
2021/11/23 10:57:10;;;;;;;43.50;22.48;;;6.40;99.90;;;;;;5002859;28;20058;-87
2021/11/23 10:59:39;;;;;;;40.67;20.05;;;6.50;99.90;;;;;;4982066;28;20046;-91
2021/11/23 11:02:07;;;;;;;45.78;21.77;;;6.60;99.90;;;;;;4990643;28;20070;-83
2021/11/23 11:04:41;;;;;;;36.58;18.25;;;6.40;99.90;;;;;;4983546;28;20504;-83
2021/11/23 11:07:10;;;;;;;39.25;19.75;;;6.40;99.90;;;;;;4982815;28;20438;-84
2021/11/23 11:09:39;;;;;;;44.78;19.98;;;6.50;99.90;;;;;;4995390;28;20055;-84
2021/11/23 11:12:07;;;;;;;38.78;20.30;;;6.50;99.90;;;;;;4974433;28;20062;-83
2021/11/23 11:14:42;;;;;;;47.65;20.63;;;6.50;99.90;;;;;;4966874;28;20047;-84
2021/11/23 11:17:10;;;;;;;39.15;22.08;;;6.50;99.90;;;;;;4979408;28;20536;-83
2021/11/23 11:19:48;;;;;;;41.00;19.63;;;6.50;99.90;;;;;;4975900;28;20058;-85
2021/11/23 11:22:19;;;;;;;40.72;20.30;;;6.60;99.90;;;;;;4974576;28;20057;-84
2021/11/23 11:25:15;;;;;;;37.50;21.48;;;6.60;99.90;;;;;;5010306;28;20410;-85
2021/11/23 11:27:48;;;;;;;33.35;17.25;;;8.70;99.90;;;;;;4983491;28;20050;-84
2021/11/23 11:30:20;;;;;;;43.42;24.50;;;8.00;99.90;;;;;;5001293;28;20050;-83
2021/11/23 11:32:52;;;;;;;37.50;19.33;;;6.70;99.90;;;;;;4998448;28;20054;-85
2021/11/23 11:35:28;;;;;;;41.50;19.38;;;7.90;99.90;;;;;;5005868;28;20350;-88
2021/11/23 11:38:04;;;;;;;34.55;19.55;;;7.20;99.90;;;;;;4990053;28;20066;-84
2021/11/23 11:40:42;;;;;;;34.47;17.65;;;7.00;99.90;;;;;;5006566;28;20053;-84
2021/11/23 11:43:11;;;;;;;43.88;19.83;;;7.60;99.90;;;;;;5023987;28;20050;-84
2021/11/23 11:45:43;;;;;;;36.33;19.55;;;7.10;99.90;;;;;;5017618;28;20055;-85
2021/11/23 11:48:29;;;;;;;34.42;18.10;;;7.10;99.90;;;;;;4972083;28;20039;-84
2021/11/23 11:51:27;;;;;;;39.92;18.90;;;7.20;99.90;;;;;;4987596;28;20498;-82
2021/11/23 11:53:58;;;;;;;44.58;19.33;;;7.20;99.90;;;;;;5003499;28;20061;-85
2021/11/23 11:56:35;;;;;;;44.08;19.70;;;7.30;99.90;;;;;;5009173;28;20057;-84
2021/11/23 11:59:26;;;;;;;43.30;19.05;;;7.30;99.90;;;;;;5010909;28;20050;-84
2021/11/23 12:02:01;;;;;;;33.50;17.08;;;9.10;99.90;;;;;;5006902;28;20066;-85
2021/11/23 12:04:33;;;;;;;39.72;18.83;;;7.30;99.90;;;;;;4951661;28;20147;-85
2021/11/23 12:07:10;;;;;;;37.55;21.30;;;7.40;99.90;;;;;;4999056;28;20047;-84
2021/11/23 12:09:52;;;;;;;42.80;19.17;;;7.80;99.90;;;;;;4979038;28;20372;-85
2021/11/23 12:12:31;;;;;;;41.53;19.98;;;7.50;99.90;;;;;;5015229;28;20054;-85
2021/11/23 12:15:13;;;;;;;41.35;21.38;;;8.20;99.90;;;;;;5006369;28;20057;-89
2021/11/23 12:18:01;;;;;;;37.67;19.45;;;8.50;99.90;;;;;;4978439;28;20149;-84
2021/11/23 12:20:49;;;;;;;39.25;19.65;;;7.70;99.90;;;;;;4941622;28;20146;-84
2021/11/23 12:23:29;;;;;;;41.38;20.33;;;7.80;99.90;;;;;;5007410;28;20051;-84
2021/11/23 12:26:08;;;;;;;33.95;19.17;;;7.90;99.90;;;;;;5004982;28;20062;-84
2021/11/23 12:28:36;;;;;;;37.10;18.30;;;7.90;99.90;;;;;;4973150;28;20054;-84
2021/11/23 12:31:10;;;;;;;37.90;18.27;;;8.00;99.90;;;;;;4976265;28;20081;-83
2021/11/23 12:33:44;;;;;;;34.78;19.17;;;8.00;99.90;;;;;;4976030;28;20054;-85
2021/11/23 12:36:19;;;;;;;47.80;19.88;;;8.10;99.90;;;;;;4973459;28;20061;-83
2021/11/23 12:38:47;;;;;;;34.35;19.63;;;7.90;99.90;;;;;;4973170;28;20051;-84
2021/11/23 12:41:25;;;;;;;33.42;18.40;;;8.20;99.90;;;;;;4977916;28;20047;-84
2021/11/23 12:43:54;;;;;;;34.15;16.33;;;8.20;99.90;;;;;;4976367;28;20047;-85
2021/11/23 12:46:25;;;;;;;31.55;17.65;;;8.20;99.90;;;;;;4981047;28;20402;-85
2021/11/23 12:48:55;;;;;;;36.90;17.52;;;8.30;99.90;;;;;;4992742;28;20043;-87
2021/11/23 12:51:32;;;;;;;37.50;18.05;;;8.30;99.90;;;;;;4997983;28;20050;-82